sensor_id;sensor_type;location;lat;lon;timestamp;pressure;altitude;pressure_sealevel;temperature;humidity
16331;BME280;8275;48.206;16.340;2024-03-02T00:01:54;98439.38;;;13.41;52.70
16331;BME280;8275;48.206;16.340;2024-03-02T00:04:23;98440.78;;;13.38;52.84
16331;BME280;8275;48.206;16.340;2024-03-02T00:06:52;98438.34;;;13.37;52.83
16331;BME280;8275;48.206;16.340;2024-03-02T00:09:22;98439.44;;;13.36;52.92
16331;BME280;8275;48.206;16.340;2024-03-02T00:11:51;98439.75;;;13.34;53.11
16331;BME280;8275;48.206;16.340;2024-03-02T00:14:19;98440.84;;;13.33;53.12
16331;BME280;8275;48.206;16.340;2024-03-02T00:16:49;98435.34;;;13.33;53.24
16331;BME280;8275;48.206;16.340;2024-03-02T00:19:19;98430.97;;;13.32;53.24
16331;BME280;8275;48.206;16.340;2024-03-02T00:21:47;98423.53;;;13.33;53.28
16331;BME280;8275;48.206;16.340;2024-03-02T00:24:21;98434.00;;;13.31;53.13
16331;BME280;8275;48.206;16.340;2024-03-02T00:26:50;98434.84;;;13.31;53.18
16331;BME280;8275;48.206;16.340;2024-03-02T00:29:18;98437.06;;;13.29;53.38
16331;BME280;8275;48.206;16.340;2024-03-02T00:31:49;98435.41;;;13.28;53.28
16331;BME280;8275;48.206;16.340;2024-03-02T00:34:18;98428.28;;;13.27;53.40
16331;BME280;8275;48.206;16.340;2024-03-02T00:36:46;98426.94;;;13.25;53.30
16331;BME280;8275;48.206;16.340;2024-03-02T00:39:15;98430.78;;;13.24;53.32
16331;BME280;8275;48.206;16.340;2024-03-02T00:41:45;98427.53;;;13.22;53.61
16331;BME280;8275;48.206;16.340;2024-03-02T00:44:16;98425.38;;;13.19;53.28
16331;BME280;8275;48.206;16.340;2024-03-02T00:46:48;98428.41;;;13.17;53.62
16331;BME280;8275;48.206;16.340;2024-03-02T00:49:21;98431.75;;;13.14;53.55
16331;BME280;8275;48.206;16.340;2024-03-02T00:51:53;98424.09;;;13.11;53.55
16331;BME280;8275;48.206;16.340;2024-03-02T00:54:24;98428.75;;;13.11;53.70
16331;BME280;8275;48.206;16.340;2024-03-02T00:56:54;98419.47;;;13.07;53.42
16331;BME280;8275;48.206;16.340;2024-03-02T00:59:23;98422.53;;;13.05;53.53
16331;BME280;8275;48.206;16.340;2024-03-02T01:01:53;98427.44;;;13.03;53.70
16331;BME280;8275;48.206;16.340;2024-03-02T01:04:22;98413.16;;;13.01;53.71
16331;BME280;8275;48.206;16.340;2024-03-02T01:06:50;98416.22;;;13.00;53.60
16331;BME280;8275;48.206;16.340;2024-03-02T01:09:19;98420.38;;;12.97;53.89
16331;BME280;8275;48.206;16.340;2024-03-02T01:11:47;98419.84;;;12.95;53.76
16331;BME280;8275;48.206;16.340;2024-03-02T01:14:16;98412.69;;;12.94;54.02
16331;BME280;8275;48.206;16.340;2024-03-02T01:16:44;98409.41;;;12.92;54.03
16331;BME280;8275;48.206;16.340;2024-03-02T01:19:14;98421.53;;;12.91;54.06
16331;BME280;8275;48.206;16.340;2024-03-02T01:21:43;98419.59;;;12.92;53.89
16331;BME280;8275;48.206;16.340;2024-03-02T01:24:11;98405.31;;;12.90;54.14
16331;BME280;8275;48.206;16.340;2024-03-02T01:26:40;98415.53;;;12.89;54.00
16331;BME280;8275;48.206;16.340;2024-03-02T01:29:08;98419.06;;;12.90;54.01
16331;BME280;8275;48.206;16.340;2024-03-02T01:31:37;98419.59;;;12.92;54.16
16331;BME280;8275;48.206;16.340;2024-03-02T01:34:06;98416.06;;;12.91;54.37
16331;BME280;8275;48.206;16.340;2024-03-02T01:36:36;98414.91;;;12.92;54.28
16331;BME280;8275;48.206;16.340;2024-03-02T01:39:05;98421.25;;;12.93;54.31
16331;BME280;8275;48.206;16.340;2024-03-02T01:41:36;98421.78;;;12.95;54.50
16331;BME280;8275;48.206;16.340;2024-03-02T01:44:05;98417.91;;;12.96;54.51
16331;BME280;8275;48.206;16.340;2024-03-02T01:46:33;98424.78;;;12.98;54.31
16331;BME280;8275;48.206;16.340;2024-03-02T01:49:03;98418.13;;;12.99;54.30
16331;BME280;8275;48.206;16.340;2024-03-02T01:51:31;98415.91;;;13.01;54.52
16331;BME280;8275;48.206;16.340;2024-03-02T01:54:01;98415.91;;;13.01;54.31
16331;BME280;8275;48.206;16.340;2024-03-02T01:56:30;98415.63;;;13.03;54.32
16331;BME280;8275;48.206;16.340;2024-03-02T01:58:58;98408.50;;;13.02;54.54
16331;BME280;8275;48.206;16.340;2024-03-02T02:01:27;98412.88;;;13.03;54.22
16331;BME280;8275;48.206;16.340;2024-03-02T02:03:55;98410.66;;;13.05;54.44
16331;BME280;8275;48.206;16.340;2024-03-02T02:06:24;98400.75;;;13.04;54.31
16331;BME280;8275;48.206;16.340;2024-03-02T02:08:53;98403.50;;;13.04;54.51
16331;BME280;8275;48.206;16.340;2024-03-02T02:11:23;98399.16;;;13.03;54.52
16331;BME280;8275;48.206;16.340;2024-03-02T02:13:51;98392.81;;;13.02;54.31
16331;BME280;8275;48.206;16.340;2024-03-02T02:16:22;98392.00;;;13.02;54.45
16331;BME280;8275;48.206;16.340;2024-03-02T02:18:51;98397.50;;;13.02;54.29
16331;BME280;8275;48.206;16.340;2024-03-02T02:21:24;98387.91;;;12.99;54.28
16331;BME280;8275;48.206;16.340;2024-03-02T02:23:52;98389.56;;;13.00;54.42
16331;BME280;8275;48.206;16.340;2024-03-02T02:26:20;98385.97;;;13.00;54.30
16331;BME280;8275;48.206;16.340;2024-03-02T02:28:49;98378.81;;;12.99;54.41
16331;BME280;8275;48.206;16.340;2024-03-02T02:31:17;98382.69;;;12.98;54.56
16331;BME280;8275;48.206;16.340;2024-03-02T02:33:45;98378.03;;;12.98;54.40
16331;BME280;8275;48.206;16.340;2024-03-02T02:36:14;98380.78;;;12.98;54.47
16331;BME280;8275;48.206;16.340;2024-03-02T02:38:46;98375.56;;;12.97;54.54
16331;BME280;8275;48.206;16.340;2024-03-02T02:41:16;98373.63;;;12.97;54.34
16331;BME280;8275;48.206;16.340;2024-03-02T02:43:44;98369.78;;;12.98;54.42
16331;BME280;8275;48.206;16.340;2024-03-02T02:46:13;98379.13;;;12.97;54.53
16331;BME280;8275;48.206;16.340;2024-03-02T02:48:41;98383.53;;;12.98;54.46
16331;BME280;8275;48.206;16.340;2024-03-02T02:51:09;98378.03;;;12.98;54.59
16331;BME280;8275;48.206;16.340;2024-03-02T02:53:38;98373.31;;;12.99;54.50
16331;BME280;8275;48.206;16.340;2024-03-02T02:56:09;98375.28;;;12.98;54.39
16331;BME280;8275;48.206;16.340;2024-03-02T02:58:39;98368.66;;;12.99;54.43
16331;BME280;8275;48.206;16.340;2024-03-02T03:01:07;98369.78;;;12.98;54.51
16331;BME280;8275;48.206;16.340;2024-03-02T03:03:36;98375.28;;;12.98;54.46
16331;BME280;8275;48.206;16.340;2024-03-02T03:06:04;98383.53;;;12.98;54.61
16331;BME280;8275;48.206;16.340;2024-03-02T03:08:33;98378.31;;;12.97;54.45
16331;BME280;8275;48.206;16.340;2024-03-02T03:11:01;98376.97;;;12.94;54.49
16331;BME280;8275;48.206;16.340;2024-03-02T03:13:31;98372.59;;;12.93;54.66
16331;BME280;8275;48.206;16.340;2024-03-02T03:16:00;98381.94;;;12.92;54.59
16331;BME280;8275;48.206;16.340;2024-03-02T03:18:29;98376.75;;;12.91;54.49
16331;BME280;8275;48.206;16.340;2024-03-02T03:20:58;98376.22;;;12.89;54.58
16331;BME280;8275;48.206;16.340;2024-03-02T03:23:26;98375.91;;;12.90;54.46
16331;BME280;8275;48.206;16.340;2024-03-02T03:25:54;98380.06;;;12.88;54.68
16331;BME280;8275;48.206;16.340;2024-03-02T03:28:23;98379.53;;;12.86;54.37
16331;BME280;8275;48.206;16.340;2024-03-02T03:30:52;98384.00;;;12.82;54.45
16331;BME280;8275;48.206;16.340;2024-03-02T03:33:21;98389.75;;;12.80;54.32
16331;BME280;8275;48.206;16.340;2024-03-02T03:35:49;98383.22;;;12.76;54.44
16331;BME280;8275;48.206;16.340;2024-03-02T03:38:18;98383.81;;;12.73;54.15
16331;BME280;8275;48.206;16.340;2024-03-02T03:40:46;98383.56;;;12.69;54.26
16331;BME280;8275;48.206;16.340;2024-03-02T03:43:14;98384.16;;;12.66;54.26
16331;BME280;8275;48.206;16.340;2024-03-02T03:45:43;98392.16;;;12.63;54.33
16331;BME280;8275;48.206;16.340;2024-03-02T03:48:13;98385.03;;;12.62;54.57
16331;BME280;8275;48.206;16.340;2024-03-02T03:50:41;98393.88;;;12.59;54.59
16331;BME280;8275;48.206;16.340;2024-03-02T03:53:10;98392.22;;;12.58;54.54
16331;BME280;8275;48.206;16.340;2024-03-02T03:55:38;98388.41;;;12.54;54.43
16331;BME280;8275;48.206;16.340;2024-03-02T03:58:06;98399.66;;;12.52;54.48
16331;BME280;8275;48.206;16.340;2024-03-02T04:00:35;98400.28;;;12.49;54.43
16331;BME280;8275;48.206;16.340;2024-03-02T04:03:04;98397.28;;;12.46;54.58
16331;BME280;8275;48.206;16.340;2024-03-02T04:05:34;98393.16;;;12.43;54.46
16331;BME280;8275;48.206;16.340;2024-03-02T04:08:03;98391.03;;;12.40;54.52
16331;BME280;8275;48.206;16.340;2024-03-02T04:10:31;98392.69;;;12.36;54.66
16331;BME280;8275;48.206;16.340;2024-03-02T04:13:01;98385.06;;;12.33;54.59
16331;BME280;8275;48.206;16.340;2024-03-02T04:15:29;98388.38;;;12.30;54.83
16331;BME280;8275;48.206;16.340;2024-03-02T04:17:58;98384.25;;;12.28;54.76
16331;BME280;8275;48.206;16.340;2024-03-02T04:20:26;98388.41;;;12.25;54.39
16331;BME280;8275;48.206;16.340;2024-03-02T04:22:56;98407.41;;;12.22;54.43
16331;BME280;8275;48.206;16.340;2024-03-02T04:25:24;98407.97;;;12.19;54.55
16331;BME280;8275;48.206;16.340;2024-03-02T04:27:53;98412.94;;;12.17;54.88
16331;BME280;8275;48.206;16.340;2024-03-02T04:30:21;98410.75;;;12.14;54.88
16331;BME280;8275;48.206;16.340;2024-03-02T04:32:49;98423.13;;;12.11;54.85
16331;BME280;8275;48.206;16.340;2024-03-02T04:35:18;98412.72;;;12.08;55.10
16331;BME280;8275;48.206;16.340;2024-03-02T04:37:46;98414.66;;;12.08;54.75
16331;BME280;8275;48.206;16.340;2024-03-02T04:40:16;98416.34;;;12.04;54.86
16331;BME280;8275;48.206;16.340;2024-03-02T04:42:44;98415.81;;;12.02;55.19
16331;BME280;8275;48.206;16.340;2024-03-02T04:45:13;98418.00;;;11.99;54.99
16331;BME280;8275;48.206;16.340;2024-03-02T04:47:41;98421.84;;;11.98;55.06
16331;BME280;8275;48.206;16.340;2024-03-02T04:50:14;98420.22;;;11.97;54.69
16331;BME280;8275;48.206;16.340;2024-03-02T04:52:42;98430.66;;;11.95;55.03
16331;BME280;8275;48.206;16.340;2024-03-02T04:55:11;98429.59;;;11.91;54.99
16331;BME280;8275;48.206;16.340;2024-03-02T04:57:58;98434.56;;;11.89;55.16
16331;BME280;8275;48.206;16.340;2024-03-02T05:00:25;98436.75;;;11.87;54.88
16331;BME280;8275;48.206;16.340;2024-03-02T05:02:53;98445.25;;;11.86;55.20
16331;BME280;8275;48.206;16.340;2024-03-02T05:05:22;98442.81;;;11.84;55.24
16331;BME280;8275;48.206;16.340;2024-03-02T05:07:50;98439.25;;;11.84;55.17
16331;BME280;8275;48.206;16.340;2024-03-02T05:10:19;98453.78;;;11.84;55.31
16331;BME280;8275;48.206;16.340;2024-03-02T05:12:47;98455.16;;;11.87;55.24
16331;BME280;8275;48.206;16.340;2024-03-02T05:15:26;98452.63;;;11.90;55.54
16331;BME280;8275;48.206;16.340;2024-03-02T05:17:54;98452.34;;;11.97;55.46
16331;BME280;8275;48.206;16.340;2024-03-02T05:20:24;98455.84;;;12.03;55.93
16331;BME280;8275;48.206;16.340;2024-03-02T05:22:53;98455.81;;;12.08;55.69
16331;BME280;8275;48.206;16.340;2024-03-02T05:25:21;98462.13;;;12.13;56.17
16331;BME280;8275;48.206;16.340;2024-03-02T05:27:49;98462.56;;;12.20;56.24
16331;BME280;8275;48.206;16.340;2024-03-02T05:30:18;98466.66;;;12.28;56.28
16331;BME280;8275;48.206;16.340;2024-03-02T05:32:48;98453.41;;;12.35;56.08
16331;BME280;8275;48.206;16.340;2024-03-02T05:35:16;98463.25;;;12.41;56.37
16331;BME280;8275;48.206;16.340;2024-03-02T05:37:45;98466.22;;;12.49;56.33
16331;BME280;8275;48.206;16.340;2024-03-02T05:40:14;98465.88;;;12.56;56.02
16331;BME280;8275;48.206;16.340;2024-03-02T05:42:42;98457.59;;;12.61;56.03
16331;BME280;8275;48.206;16.340;2024-03-02T05:45:11;98463.84;;;12.66;56.00
16331;BME280;8275;48.206;16.340;2024-03-02T05:47:39;98462.16;;;12.71;56.03
16331;BME280;8275;48.206;16.340;2024-03-02T05:50:09;98463.53;;;12.73;56.16
16331;BME280;8275;48.206;16.340;2024-03-02T05:52:38;98467.31;;;12.77;56.08
16331;BME280;8275;48.206;16.340;2024-03-02T05:55:07;98462.03;;;12.81;55.81
16331;BME280;8275;48.206;16.340;2024-03-02T05:57:36;98465.06;;;12.84;55.81
16331;BME280;8275;48.206;16.340;2024-03-02T06:00:22;98462.81;;;12.86;55.89
16331;BME280;8275;48.206;16.340;2024-03-02T06:02:51;98466.31;;;12.92;55.92
16331;BME280;8275;48.206;16.340;2024-03-02T06:05:21;98477.28;;;12.97;56.01
16331;BME280;8275;48.206;16.340;2024-03-02T06:07:49;98485.47;;;13.02;55.76
16331;BME280;8275;48.206;16.340;2024-03-02T06:10:18;98484.06;;;13.04;55.69
16331;BME280;8275;48.206;16.340;2024-03-02T06:12:47;98498.06;;;13.08;55.67
16331;BME280;8275;48.206;16.340;2024-03-02T06:15:16;98504.13;;;13.10;55.38
16331;BME280;8275;48.206;16.340;2024-03-02T06:17:46;98495.81;;;13.15;55.43
16331;BME280;8275;48.206;16.340;2024-03-02T06:20:14;98491.66;;;13.17;55.33
16331;BME280;8275;48.206;16.340;2024-03-02T06:22:44;98483.94;;;13.19;55.24
16331;BME280;8275;48.206;16.340;2024-03-02T06:25:13;98484.75;;;13.20;54.98
16331;BME280;8275;48.206;16.340;2024-03-02T06:27:41;98489.97;;;13.21;55.16
16331;BME280;8275;48.206;16.340;2024-03-02T06:30:11;98490.50;;;13.23;54.87
16331;BME280;8275;48.206;16.340;2024-03-02T06:32:40;98491.84;;;13.26;54.95
16331;BME280;8275;48.206;16.340;2024-03-02T06:35:09;98487.16;;;13.26;54.88
16331;BME280;8275;48.206;16.340;2024-03-02T06:37:38;98482.47;;;13.27;54.87
16331;BME280;8275;48.206;16.340;2024-03-02T06:40:09;98487.41;;;13.30;54.92
16331;BME280;8275;48.206;16.340;2024-03-02T06:42:38;98488.75;;;13.32;54.79
16331;BME280;8275;48.206;16.340;2024-03-02T06:45:07;98485.69;;;13.34;54.67
16331;BME280;8275;48.206;16.340;2024-03-02T06:47:35;98484.34;;;13.31;54.38
16331;BME280;8275;48.206;16.340;2024-03-02T06:50:05;98496.22;;;13.27;54.49
16331;BME280;8275;48.206;16.340;2024-03-02T06:52:34;98494.66;;;13.21;54.57
16331;BME280;8275;48.206;16.340;2024-03-02T06:55:04;98499.38;;;13.15;54.52
16331;BME280;8275;48.206;16.340;2024-03-02T06:57:34;98495.59;;;13.11;54.54
16331;BME280;8275;48.206;16.340;2024-03-02T07:00:03;98494.22;;;13.09;54.46
16331;BME280;8275;48.206;16.340;2024-03-02T07:02:32;98503.56;;;13.08;54.66
16331;BME280;8275;48.206;16.340;2024-03-02T07:05:00;98505.53;;;13.07;54.58
16331;BME280;8275;48.206;16.340;2024-03-02T07:07:29;98508.81;;;13.09;54.81
16331;BME280;8275;48.206;16.340;2024-03-02T07:09:57;98505.19;;;13.14;54.97
16331;BME280;8275;48.206;16.340;2024-03-02T07:12:26;98504.56;;;13.17;54.93
16331;BME280;8275;48.206;16.340;2024-03-02T07:14:56;98498.50;;;13.20;54.88
16331;BME280;8275;48.206;16.340;2024-03-02T07:17:52;98498.75;;;13.23;55.16
16331;BME280;8275;48.206;16.340;2024-03-02T07:20:20;98498.66;;;13.28;54.98
16331;BME280;8275;48.206;16.340;2024-03-02T07:22:49;98497.78;;;13.33;54.68
16331;BME280;8275;48.206;16.340;2024-03-02T07:25:17;98498.56;;;13.38;54.72
16331;BME280;8275;48.206;16.340;2024-03-02T07:27:48;98500.75;;;13.42;54.89
16331;BME280;8275;48.206;16.340;2024-03-02T07:30:18;98509.22;;;13.45;54.80
16331;BME280;8275;48.206;16.340;2024-03-02T07:32:50;98510.03;;;13.46;54.52
16331;BME280;8275;48.206;16.340;2024-03-02T07:35:18;98517.19;;;13.47;54.72
16331;BME280;8275;48.206;16.340;2024-03-02T07:37:48;98520.47;;;13.49;54.66
16331;BME280;8275;48.206;16.340;2024-03-02T07:40:17;98523.75;;;13.51;54.78
16331;BME280;8275;48.206;16.340;2024-03-02T07:42:45;98524.22;;;13.58;55.04
16331;BME280;8275;48.206;16.340;2024-03-02T07:45:14;98527.13;;;13.66;55.13
16331;BME280;8275;48.206;16.340;2024-03-02T07:47:47;98519.53;;;13.77;55.05
16331;BME280;8275;48.206;16.340;2024-03-02T07:50:17;98521.88;;;13.88;54.89
16331;BME280;8275;48.206;16.340;2024-03-02T07:52:46;98528.34;;;13.97;54.78
16331;BME280;8275;48.206;16.340;2024-03-02T07:55:15;98524.94;;;14.05;54.81
16331;BME280;8275;48.206;16.340;2024-03-02T07:57:43;98525.53;;;14.21;54.72
16331;BME280;8275;48.206;16.340;2024-03-02T08:00:13;98529.22;;;14.35;54.61
16331;BME280;8275;48.206;16.340;2024-03-02T08:02:41;98532.94;;;14.44;54.17
16331;BME280;8275;48.206;16.340;2024-03-02T08:05:11;98530.09;;;14.49;54.03
16331;BME280;8275;48.206;16.340;2024-03-02T08:07:40;98526.44;;;14.54;53.95
16331;BME280;8275;48.206;16.340;2024-03-02T08:10:09;98523.63;;;14.59;53.86
16331;BME280;8275;48.206;16.340;2024-03-02T08:12:38;98521.50;;;14.69;53.88
16331;BME280;8275;48.206;16.340;2024-03-02T08:15:07;98531.47;;;14.84;53.74
16331;BME280;8275;48.206;16.340;2024-03-02T08:17:36;98536.44;;;15.01;53.70
16331;BME280;8275;48.206;16.340;2024-03-02T08:20:07;98528.38;;;15.18;53.48
16331;BME280;8275;48.206;16.340;2024-03-02T08:22:37;98528.91;;;15.33;52.91
16331;BME280;8275;48.206;16.340;2024-03-02T08:25:07;98536.09;;;15.48;52.71
16331;BME280;8275;48.206;16.340;2024-03-02T08:27:37;98529.06;;;15.56;52.40
16331;BME280;8275;48.206;16.340;2024-03-02T08:30:07;98527.53;;;15.63;52.40
16331;BME280;8275;48.206;16.340;2024-03-02T08:32:37;98523.31;;;15.66;52.17
16331;BME280;8275;48.206;16.340;2024-03-02T08:35:08;98525.16;;;15.70;51.93
16331;BME280;8275;48.206;16.340;2024-03-02T08:37:39;98529.56;;;15.71;51.66
16331;BME280;8275;48.206;16.340;2024-03-02T08:40:10;98528.22;;;15.69;51.55
16331;BME280;8275;48.206;16.340;2024-03-02T08:42:43;98528.84;;;15.66;51.64
16331;BME280;8275;48.206;16.340;2024-03-02T08:45:13;98526.91;;;15.66;51.42
16331;BME280;8275;48.206;16.340;2024-03-02T08:47:41;98518.34;;;15.68;51.17
16331;BME280;8275;48.206;16.340;2024-03-02T08:50:11;98522.41;;;15.70;51.27
16331;BME280;8275;48.206;16.340;2024-03-02T08:52:40;98522.94;;;15.72;51.07
16331;BME280;8275;48.206;16.340;2024-03-02T08:55:10;98522.00;;;15.77;51.07
16331;BME280;8275;48.206;16.340;2024-03-02T08:57:39;98522.19;;;15.80;51.07
16331;BME280;8275;48.206;16.340;2024-03-02T09:00:10;98523.72;;;15.86;51.12
16331;BME280;8275;48.206;16.340;2024-03-02T09:02:39;98513.59;;;15.95;51.21
16331;BME280;8275;48.206;16.340;2024-03-02T09:05:08;98514.50;;;16.04;50.59
16331;BME280;8275;48.206;16.340;2024-03-02T09:07:36;98513.66;;;16.17;50.83
16331;BME280;8275;48.206;16.340;2024-03-02T09:10:09;98518.31;;;16.31;50.67
16331;BME280;8275;48.206;16.340;2024-03-02T09:12:38;98515.00;;;16.42;50.53
16331;BME280;8275;48.206;16.340;2024-03-02T09:15:08;98515.38;;;16.49;50.43
16331;BME280;8275;48.206;16.340;2024-03-02T09:17:36;98518.38;;;16.53;50.13
16331;BME280;8275;48.206;16.340;2024-03-02T09:20:06;98517.75;;;16.56;50.15
16331;BME280;8275;48.206;16.340;2024-03-02T09:22:34;98508.00;;;16.58;50.09
16331;BME280;8275;48.206;16.340;2024-03-02T09:25:04;98508.72;;;16.64;50.20
16331;BME280;8275;48.206;16.340;2024-03-02T09:27:38;98505.81;;;16.69;49.81
16331;BME280;8275;48.206;16.340;2024-03-02T09:30:09;98501.59;;;16.71;49.89
16331;BME280;8275;48.206;16.340;2024-03-02T09:32:37;98503.72;;;16.74;49.89
16331;BME280;8275;48.206;16.340;2024-03-02T09:35:07;98497.94;;;16.84;49.88
16331;BME280;8275;48.206;16.340;2024-03-02T09:37:36;98501.75;;;16.97;49.82
16331;BME280;8275;48.206;16.340;2024-03-02T09:40:06;98504.13;;;17.12;49.68
16331;BME280;8275;48.206;16.340;2024-03-02T09:42:35;98506.31;;;17.24;49.58
16331;BME280;8275;48.206;16.340;2024-03-02T09:45:06;98495.59;;;17.31;49.25
16331;BME280;8275;48.206;16.340;2024-03-02T09:47:35;98494.81;;;17.39;49.24
16331;BME280;8275;48.206;16.340;2024-03-02T09:50:04;98492.88;;;17.48;49.10
16331;BME280;8275;48.206;16.340;2024-03-02T09:52:33;98486.78;;;17.60;49.10
16331;BME280;8275;48.206;16.340;2024-03-02T09:55:03;98489.13;;;17.75;49.13
16331;BME280;8275;48.206;16.340;2024-03-02T09:57:32;98484.56;;;17.87;48.82
16331;BME280;8275;48.206;16.340;2024-03-02T10:00:01;98483.31;;;17.93;48.55
16331;BME280;8275;48.206;16.340;2024-03-02T10:02:31;98480.81;;;17.92;48.30
16331;BME280;8275;48.206;16.340;2024-03-02T10:05:00;98471.38;;;17.93;48.35
16331;BME280;8275;48.206;16.340;2024-03-02T10:07:31;98475.13;;;17.97;48.37
16331;BME280;8275;48.206;16.340;2024-03-02T10:10:13;98473.84;;;18.03;48.42
16331;BME280;8275;48.206;16.340;2024-03-02T10:12:42;98470.91;;;18.16;48.25
16331;BME280;8275;48.206;16.340;2024-03-02T10:15:11;98469.47;;;18.28;48.30
16331;BME280;8275;48.206;16.340;2024-03-02T10:17:41;98468.81;;;18.39;48.04
16331;BME280;8275;48.206;16.340;2024-03-02T10:20:22;98478.63;;;18.45;47.79
16331;BME280;8275;48.206;16.340;2024-03-02T10:22:51;98474.22;;;18.53;47.81
16331;BME280;8275;48.206;16.340;2024-03-02T10:25:30;98469.78;;;18.60;47.66
16331;BME280;8275;48.206;16.340;2024-03-02T10:28:17;98470.13;;;18.67;47.60
16331;BME280;8275;48.206;16.340;2024-03-02T10:30:48;98473.72;;;18.68;47.28
16331;BME280;8275;48.206;16.340;2024-03-02T10:33:20;98467.69;;;18.66;47.13
16331;BME280;8275;48.206;16.340;2024-03-02T10:35:49;98467.84;;;18.61;47.18
16331;BME280;8275;48.206;16.340;2024-03-02T10:38:18;98463.63;;;18.55;47.21
16331;BME280;8275;48.206;16.340;2024-03-02T10:40:47;98462.31;;;18.52;47.26
16331;BME280;8275;48.206;16.340;2024-03-02T10:43:17;98465.91;;;18.53;47.08
16331;BME280;8275;48.206;16.340;2024-03-02T10:45:49;98466.72;;;18.53;47.17
16331;BME280;8275;48.206;16.340;2024-03-02T10:48:20;98466.06;;;18.56;47.32
16331;BME280;8275;48.206;16.340;2024-03-02T10:50:50;98454.66;;;18.58;47.31
16331;BME280;8275;48.206;16.340;2024-03-02T10:53:18;98458.41;;;18.62;47.17
16331;BME280;8275;48.206;16.340;2024-03-02T10:55:53;98458.06;;;18.63;47.27
16331;BME280;8275;48.206;16.340;2024-03-02T10:58:33;98455.94;;;18.69;47.34
16331;BME280;8275;48.206;16.340;2024-03-02T11:01:03;98456.41;;;18.71;47.12
16331;BME280;8275;48.206;16.340;2024-03-02T11:03:36;98451.34;;;18.73;47.24
16331;BME280;8275;48.206;16.340;2024-03-02T11:06:08;98455.44;;;18.75;47.02
16331;BME280;8275;48.206;16.340;2024-03-02T11:08:38;98455.25;;;18.80;47.06
16331;BME280;8275;48.206;16.340;2024-03-02T11:11:15;98453.09;;;18.86;47.32
16331;BME280;8275;48.206;16.340;2024-03-02T11:13:50;98457.03;;;18.93;47.17
16331;BME280;8275;48.206;16.340;2024-03-02T11:16:30;98452.44;;;18.98;47.07
16331;BME280;8275;48.206;16.340;2024-03-02T11:19:04;98451.44;;;19.02;47.07
16331;BME280;8275;48.206;16.340;2024-03-02T11:21:34;98451.25;;;19.07;47.10
16331;BME280;8275;48.206;16.340;2024-03-02T11:24:31;98450.78;;;19.05;47.00
16331;BME280;8275;48.206;16.340;2024-03-02T11:27:05;98443.41;;;19.09;47.02
16331;BME280;8275;48.206;16.340;2024-03-02T11:29:52;98440.81;;;19.13;47.07
16331;BME280;8275;48.206;16.340;2024-03-02T11:32:22;98443.19;;;19.23;46.99
16331;BME280;8275;48.206;16.340;2024-03-02T11:34:52;98442.19;;;19.27;46.82
16331;BME280;8275;48.206;16.340;2024-03-02T11:37:21;98436.34;;;19.29;46.62
16331;BME280;8275;48.206;16.340;2024-03-02T11:39:50;98438.41;;;19.32;46.48
16331;BME280;8275;48.206;16.340;2024-03-02T11:42:19;98446.75;;;19.32;46.33
16331;BME280;8275;48.206;16.340;2024-03-02T11:44:48;98440.72;;;19.30;46.24
16331;BME280;8275;48.206;16.340;2024-03-02T11:47:17;98440.41;;;19.31;46.10
16331;BME280;8275;48.206;16.340;2024-03-02T11:49:48;98448.06;;;19.34;46.19
16331;BME280;8275;48.206;16.340;2024-03-02T11:52:18;98444.66;;;19.37;46.05
16331;BME280;8275;48.206;16.340;2024-03-02T11:54:48;98450.19;;;19.37;46.00
16331;BME280;8275;48.206;16.340;2024-03-02T11:57:19;98448.41;;;19.33;45.81
16331;BME280;8275;48.206;16.340;2024-03-02T11:59:49;98449.06;;;19.30;45.85
16331;BME280;8275;48.206;16.340;2024-03-02T12:02:20;98441.88;;;19.29;45.83
16331;BME280;8275;48.206;16.340;2024-03-02T12:04:49;98447.91;;;19.31;45.87
16331;BME280;8275;48.206;16.340;2024-03-02T12:07:21;98445.13;;;19.39;45.91
16331;BME280;8275;48.206;16.340;2024-03-02T12:10:00;98448.84;;;19.43;45.72
16331;BME280;8275;48.206;16.340;2024-03-02T12:12:30;98451.31;;;19.45;45.77
16331;BME280;8275;48.206;16.340;2024-03-02T12:14:59;98449.03;;;19.47;45.71
16331;BME280;8275;48.206;16.340;2024-03-02T12:17:29;98446.72;;;19.49;45.57
16331;BME280;8275;48.206;16.340;2024-03-02T12:19:57;98450.13;;;19.54;45.57
16331;BME280;8275;48.206;16.340;2024-03-02T12:22:27;98445.19;;;19.60;45.40
16331;BME280;8275;48.206;16.340;2024-03-02T12:24:57;98450.91;;;19.64;45.41
16331;BME280;8275;48.206;16.340;2024-03-02T12:27:25;98443.34;;;19.64;45.34
16331;BME280;8275;48.206;16.340;2024-03-02T12:29:54;98440.75;;;19.68;45.37
16331;BME280;8275;48.206;16.340;2024-03-02T12:32:22;98439.84;;;19.76;45.25
16331;BME280;8275;48.206;16.340;2024-03-02T12:34:51;98441.78;;;19.84;45.17
16331;BME280;8275;48.206;16.340;2024-03-02T12:37:20;98440.91;;;19.92;45.40
16331;BME280;8275;48.206;16.340;2024-03-02T12:39:49;98439.69;;;20.01;45.21
16331;BME280;8275;48.206;16.340;2024-03-02T12:42:18;98430.97;;;20.11;45.11
16331;BME280;8275;48.206;16.340;2024-03-02T12:44:46;98437.63;;;20.19;44.86
16331;BME280;8275;48.206;16.340;2024-03-02T12:47:15;98439.06;;;20.25;44.92
16331;BME280;8275;48.206;16.340;2024-03-02T12:49:43;98428.88;;;20.29;44.66
16331;BME280;8275;48.206;16.340;2024-03-02T12:52:13;98437.50;;;20.36;44.66
16331;BME280;8275;48.206;16.340;2024-03-02T12:54:41;98427.78;;;20.42;44.47
16331;BME280;8275;48.206;16.340;2024-03-02T12:57:17;98428.03;;;20.49;44.21
16331;BME280;8275;48.206;16.340;2024-03-02T12:59:46;98427.00;;;20.54;44.32
16331;BME280;8275;48.206;16.340;2024-03-02T13:02:18;98422.25;;;20.54;44.11
16331;BME280;8275;48.206;16.340;2024-03-02T13:04:52;98428.38;;;20.48;43.80
16331;BME280;8275;48.206;16.340;2024-03-02T13:07:23;98432.53;;;20.42;44.02
16331;BME280;8275;48.206;16.340;2024-03-02T13:09:52;98437.63;;;20.40;43.02
16331;BME280;8275;48.206;16.340;2024-03-02T13:12:24;98429.81;;;20.33;43.36
16331;BME280;8275;48.206;16.340;2024-03-02T13:14:53;98421.81;;;20.32;43.38